White Oak, Ohio
Current Conditions -  °F | °C
As of 4:35 PM on Friday 31 Oct 2014 (Local Time) from KI67 Reporting Station
Overcast Overcast  
Wind Chill:   Ceiling: 2900
Heat Index:   Visibility: 10mi
Dew Point:   Wind: 12mph
Humidity: 76%   Direction: 300°WNW
Pressure: 29.94"   Gusts: 17mph
Location:  39.2201°N, 84.6531°W
Report Text: KI67 312035Z AUTO 30010G15KT 10SM SCT018 BKN029 OVC060 05/01 A2994 RMK AO1
Loading
Personal Weather Stations






























Interactive Weather Map
Tropical Storm Tracking
New forecast layout! Learn more

10-Day Weather Forecast

Advertisements
Track Severe Weather on mobile